createdAt,value
2023-01-23T00:00:00.972Z,1.18
2023-01-23T00:03:03.777Z,1.18
2023-01-23T00:06:10.834Z,1.27
2023-01-23T00:09:13.425Z,1.35
2023-01-23T00:12:16.457Z,1.36
2023-01-23T00:15:19.292Z,1.35
2023-01-23T00:18:22.235Z,1.36
2023-01-23T00:21:28.209Z,1.38
2023-01-23T00:24:31.084Z,1.35
2023-01-23T00:27:33.939Z,1.33
2023-01-23T00:30:37.227Z,1.35
2023-01-23T00:33:40.989Z,1.38
2023-01-23T00:36:44.988Z,1.50
2023-01-23T00:39:50.880Z,1.54
2023-01-23T00:42:54.123Z,1.54
2023-01-23T00:45:57.222Z,1.53
2023-01-23T00:49:00.507Z,1.56
2023-01-23T00:52:03.165Z,1.52
2023-01-23T00:55:06.769Z,1.47
2023-01-23T00:58:09.662Z,1.46
2023-01-23T01:01:14.189Z,1.48
2023-01-23T01:04:16.951Z,1.50
2023-01-23T01:07:19.840Z,1.48
2023-01-23T01:10:29.234Z,1.46
2023-01-23T01:13:32.383Z,1.47
2023-01-23T01:16:35.800Z,1.54
2023-01-23T01:19:38.881Z,1.49
2023-01-23T01:22:41.777Z,1.66
2023-01-23T01:25:48.584Z,1.73
2023-01-23T01:28:51.225Z,1.74
2023-01-23T01:31:54.221Z,1.71
2023-01-23T01:34:56.817Z,1.72
2023-01-23T01:38:00.280Z,1.65
2023-01-23T01:41:04.909Z,1.55
2023-01-23T01:44:20.329Z,1.51
2023-01-23T01:47:23.104Z,1.56
2023-01-23T01:50:26.029Z,1.44
2023-01-23T01:53:31.709Z,1.37
2023-01-23T01:56:41.417Z,1.33
2023-01-23T02:00:05.983Z,1.31
2023-01-23T02:03:17.802Z,1.33
2023-01-23T02:06:21.480Z,1.37
2023-01-23T02:09:26.826Z,1.36
2023-01-23T02:12:31.927Z,1.41
2023-01-23T02:15:34.905Z,1.50
2023-01-23T02:18:44.547Z,1.56
2023-01-23T02:21:53.615Z,1.64
2023-01-23T02:25:03.701Z,1.73
2023-01-23T02:28:07.735Z,1.86
2023-01-23T02:31:12.661Z,1.84
2023-01-23T02:34:15.814Z,1.79
2023-01-23T02:37:21.373Z,1.76
2023-01-23T02:40:39.380Z,1.82
2023-01-23T02:43:43.409Z,1.88
2023-01-23T02:46:47.079Z,1.94
2023-01-23T02:49:49.694Z,2.00
2023-01-23T02:52:54.747Z,2.06
2023-01-23T02:55:58.841Z,2.08
2023-01-23T02:59:21.287Z,2.06
2023-01-23T03:02:25.627Z,2.09
2023-01-23T03:05:28.940Z,2.20
2023-01-23T03:08:36.219Z,2.30
2023-01-23T03:11:41.249Z,2.32
2023-01-23T03:14:43.824Z,2.35
2023-01-23T03:17:48.039Z,2.34
2023-01-23T03:20:50.672Z,2.35
2023-01-23T03:23:53.640Z,2.34
2023-01-23T03:26:56.403Z,2.31
2023-01-23T03:30:21.985Z,2.28
2023-01-23T03:33:26.953Z,2.27
2023-01-23T03:36:30.501Z,2.26
2023-01-23T03:39:52.771Z,2.24
2023-01-23T03:42:55.790Z,2.17
2023-01-23T03:45:59.644Z,2.10
2023-01-23T03:49:04.272Z,2.18
2023-01-23T03:52:07.055Z,2.22
2023-01-23T03:55:10.439Z,2.23
2023-01-23T03:58:13.329Z,2.31
2023-01-23T04:01:16.433Z,2.36
2023-01-23T04:04:20.031Z,2.39
2023-01-23T04:07:22.606Z,2.56
2023-01-23T04:10:25.936Z,2.51
2023-01-23T04:13:29.183Z,2.46
2023-01-23T04:16:32.263Z,2.44
2023-01-23T04:19:35.648Z,2.44
2023-01-23T04:22:39.069Z,2.47
2023-01-23T04:25:41.665Z,2.42
2023-01-23T04:28:48.451Z,2.44
2023-01-23T04:31:51.444Z,2.51
2023-01-23T04:34:54.457Z,2.60
2023-01-23T04:37:57.201Z,2.57
2023-01-23T04:41:03.588Z,2.62
2023-01-23T04:44:22.035Z,2.60
2023-01-23T04:47:25.997Z,2.85
2023-01-23T04:50:28.751Z,2.81
2023-01-23T04:53:32.229Z,2.73
2023-01-23T04:56:34.928Z,2.69
2023-01-23T04:59:38.856Z,2.67
2023-01-23T05:02:42.361Z,2.65
2023-01-23T05:05:48.326Z,2.70
2023-01-23T05:08:52.552Z,2.74
2023-01-23T05:11:56.234Z,2.70
2023-01-23T05:14:59.513Z,2.66
2023-01-23T05:18:03.141Z,2.57
2023-01-23T05:21:05.968Z,2.56
2023-01-23T05:24:10.627Z,2.50
2023-01-23T05:27:13.588Z,2.49
2023-01-23T05:30:18.028Z,2.44
2023-01-23T05:33:21.053Z,2.43
2023-01-23T05:36:23.934Z,2.42
2023-01-23T05:39:26.623Z,2.41
2023-01-23T05:42:29.794Z,2.48
2023-01-23T05:45:34.763Z,2.55
2023-01-23T05:48:39.568Z,2.64
2023-01-23T05:51:43.773Z,2.65
2023-01-23T05:54:47.553Z,2.71
2023-01-23T05:57:50.296Z,2.98
2023-01-23T06:00:58.631Z,2.99
2023-01-23T06:04:03.828Z,3.05
2023-01-23T06:07:12.677Z,3.30
2023-01-23T06:10:18.831Z,3.34
2023-01-23T06:13:21.551Z,3.30
2023-01-23T06:16:24.609Z,3.32
2023-01-23T06:19:27.401Z,3.26
2023-01-23T06:22:31.549Z,3.22
2023-01-23T06:25:36.083Z,3.19
2023-01-23T06:28:40.755Z,3.21
2023-01-23T06:31:43.479Z,3.30
2023-01-23T06:34:46.438Z,3.36
2023-01-23T06:37:49.604Z,3.34
2023-01-23T06:40:53.682Z,3.34
2023-01-23T06:43:57.069Z,3.34
2023-01-23T06:47:01.413Z,3.38
2023-01-23T06:50:05.191Z,3.37
2023-01-23T06:53:14.847Z,3.39
2023-01-23T06:56:19.438Z,3.48
2023-01-23T06:59:22.693Z,3.55
2023-01-23T07:02:25.456Z,3.65
2023-01-23T07:05:28.692Z,3.75
2023-01-23T07:08:31.579Z,3.87
2023-01-23T07:11:36.055Z,3.99
2023-01-23T07:14:39.197Z,4.09
2023-01-23T07:17:42.812Z,4.21
2023-01-23T07:20:46.455Z,4.34
2023-01-23T07:23:50.959Z,4.57
2023-01-23T07:26:53.549Z,4.76
2023-01-23T07:29:56.375Z,4.89
2023-01-23T07:33:02.617Z,5.03
2023-01-23T07:36:07.043Z,5.19
2023-01-23T07:39:09.781Z,5.29
2023-01-23T07:42:13.116Z,5.47
2023-01-23T07:45:17.109Z,5.65
2023-01-23T07:48:20.012Z,5.80
2023-01-23T07:51:25.077Z,5.92
2023-01-23T07:54:28.505Z,6.06
2023-01-23T07:57:31.117Z,6.17
2023-01-23T08:00:34.786Z,6.14
2023-01-23T08:03:37.928Z,6.27
2023-01-23T08:06:40.646Z,6.32
2023-01-23T08:09:43.456Z,6.31
2023-01-23T08:12:46.469Z,6.37
2023-01-23T08:15:53.387Z,6.35
2023-01-23T08:18:56.120Z,6.39
2023-01-23T08:21:59.135Z,6.38
2023-01-23T08:25:01.806Z,6.37
2023-01-23T08:28:04.947Z,6.51
2023-01-23T08:31:10.182Z,6.57
2023-01-23T08:34:13.616Z,6.56
2023-01-23T08:37:16.136Z,6.62
2023-01-23T08:40:19.854Z,6.62
2023-01-23T08:43:22.814Z,6.69
2023-01-23T08:46:25.812Z,6.72
2023-01-23T08:49:28.491Z,6.67
2023-01-23T08:52:31.696Z,6.82
2023-01-23T08:55:36.086Z,6.82
2023-01-23T08:58:38.937Z,6.71
2023-01-23T09:01:41.476Z,6.68
2023-01-23T09:04:44.328Z,6.70
2023-01-23T09:07:47.749Z,6.59
2023-01-23T09:10:50.960Z,6.62
2023-01-23T09:13:54.196Z,6.56
2023-01-23T09:16:57.149Z,6.57
2023-01-23T09:20:00.770Z,6.62
2023-01-23T09:23:03.747Z,6.66
2023-01-23T09:26:09.109Z,6.60
2023-01-23T09:29:12.162Z,6.66
2023-01-23T09:32:14.801Z,6.75
2023-01-23T09:35:17.966Z,6.88
2023-01-23T09:38:20.769Z,7.03
2023-01-23T09:41:26.864Z,7.22
2023-01-23T09:44:42.252Z,7.42
2023-01-23T09:47:53.280Z,7.52
2023-01-23T09:51:03.566Z,7.57
2023-01-23T09:54:37.397Z,7.71
2023-01-23T09:57:48.105Z,7.84
2023-01-23T10:00:52.083Z,8.06
2023-01-23T10:03:55.051Z,8.26
2023-01-23T10:06:57.804Z,8.68
2023-01-23T10:10:07.263Z,9.01
2023-01-23T10:13:16.941Z,9.39
2023-01-23T10:16:49.939Z,10.00
2023-01-23T10:20:12.359Z,10.39
2023-01-23T10:23:25.522Z,10.76
2023-01-23T10:26:36.661Z,10.79
2023-01-23T10:29:45.178Z,10.76
2023-01-23T10:32:57.069Z,10.39
2023-01-23T10:36:26.225Z,10.52
2023-01-23T10:39:42.235Z,10.60
2023-01-23T10:42:45.364Z,10.52
2023-01-23T10:45:49.809Z,10.82
2023-01-23T10:48:53.952Z,10.68
2023-01-23T10:51:56.752Z,10.74
2023-01-23T10:55:00.808Z,10.61
2023-01-23T10:58:03.793Z,10.71
2023-01-23T11:01:26.731Z,10.66
2023-01-23T11:04:35.256Z,10.73
2023-01-23T11:07:40.389Z,10.62
2023-01-23T11:10:43.049Z,10.41
2023-01-23T11:13:47.772Z,10.22
2023-01-23T11:17:23.717Z,10.34
2023-01-23T11:20:39.287Z,10.53
2023-01-23T11:23:42.067Z,10.72
2023-01-23T11:26:45.705Z,10.89
2023-01-23T11:30:13.638Z,11.05
2023-01-23T11:33:26.215Z,11.18
2023-01-23T11:36:57.837Z,11.24
2023-01-23T11:40:12.011Z,11.43
2023-01-23T11:43:17.806Z,11.29
2023-01-23T11:46:32.529Z,11.43
2023-01-23T11:50:02.716Z,11.46
2023-01-23T11:53:21.087Z,11.63
2023-01-23T11:56:45.266Z,11.71
2023-01-23T12:00:17.943Z,11.62
2023-01-23T12:04:02.267Z,11.43
2023-01-23T12:07:26.576Z,11.39
2023-01-23T12:11:11.201Z,11.19
2023-01-23T12:14:53.367Z,11.24
2023-01-23T12:18:16.282Z,11.27
2023-01-23T12:21:38.603Z,11.36
2023-01-23T12:25:14.735Z,11.30
2023-01-23T12:28:26.442Z,11.44
2023-01-23T12:31:50.899Z,11.41
2023-01-23T12:35:22.995Z,11.43
2023-01-23T12:38:50.909Z,11.25
2023-01-23T12:42:03.912Z,11.35
2023-01-23T12:45:28.547Z,11.39
2023-01-23T12:48:45.001Z,11.44
2023-01-23T12:51:54.846Z,11.36
2023-01-23T12:55:12.627Z,11.52
2023-01-23T12:58:19.101Z,12.04
2023-01-23T13:01:27.019Z,11.76
2023-01-23T13:04:56.165Z,11.56
2023-01-23T13:08:57.741Z,11.48
2023-01-23T13:12:24.043Z,11.56
2023-01-23T13:15:40.367Z,11.56
2023-01-23T13:20:01.224Z,11.60
2023-01-23T13:23:19.029Z,11.70
2023-01-23T13:26:29.058Z,11.82
2023-01-23T13:29:50.815Z,11.83
2023-01-23T13:33:01.337Z,11.81
2023-01-23T13:36:22.456Z,11.71
2023-01-23T13:39:31.496Z,11.48
2023-01-23T13:42:35.803Z,11.33
2023-01-23T13:45:41.769Z,11.23
2023-01-23T14:20:19.664Z,10.61
2023-01-23T14:23:29.829Z,10.57
2023-01-23T14:26:34.885Z,10.44
2023-01-23T14:29:37.991Z,10.31
2023-01-23T14:32:40.642Z,10.15
2023-01-23T14:35:44.153Z,10.03
2023-01-23T14:38:49.933Z,9.96
2023-01-23T14:41:57.155Z,9.91
2023-01-23T14:45:02.426Z,10.07
2023-01-23T14:48:08.014Z,9.96
2023-01-23T14:51:22.086Z,9.96
2023-01-23T14:54:26.419Z,9.85
2023-01-23T14:57:32.375Z,9.79
2023-01-23T15:00:36.100Z,9.79
2023-01-23T15:03:44.415Z,9.72
2023-01-23T15:06:51.978Z,9.74
2023-01-23T15:09:54.557Z,9.44
2023-01-23T15:13:02.433Z,9.36
2023-01-23T15:16:10.973Z,9.47
2023-01-23T15:19:22.892Z,9.38
2023-01-23T15:22:30.325Z,9.18
2023-01-23T15:25:33.848Z,9.11
2023-01-23T15:28:48.533Z,8.84
2023-01-23T15:31:53.440Z,8.58
2023-01-23T15:34:57.806Z,8.37
2023-01-23T15:38:05.084Z,8.19
2023-01-23T15:41:10.247Z,8.02
2023-01-23T15:44:19.138Z,7.89
2023-01-23T15:47:21.701Z,7.69
2023-01-23T15:50:27.055Z,7.53
2023-01-23T15:53:30.137Z,7.41
2023-01-23T15:56:34.845Z,7.35
2023-01-23T15:59:37.596Z,7.31
2023-01-23T16:02:54.788Z,7.30
2023-01-23T16:05:58.777Z,7.23
2023-01-23T16:09:05.824Z,7.18
2023-01-23T16:12:16.714Z,7.18
2023-01-23T16:15:27.900Z,7.17
2023-01-23T16:18:31.700Z,7.10
2023-01-23T16:21:34.262Z,7.08
2023-01-23T16:24:39.847Z,7.13
2023-01-23T16:27:42.474Z,7.14
2023-01-23T16:30:47.439Z,7.23
2023-01-23T16:33:50.268Z,7.24
2023-01-23T16:36:56.872Z,7.23
2023-01-23T16:39:59.828Z,7.25
2023-01-23T16:43:04.969Z,7.21
2023-01-23T16:46:08.699Z,7.22
2023-01-23T16:49:12.583Z,7.21
2023-01-23T16:52:15.504Z,7.20
2023-01-23T16:55:22.827Z,7.34
2023-01-23T16:58:29.703Z,7.28
2023-01-23T17:01:37.678Z,7.24
2023-01-23T17:04:40.338Z,7.22
2023-01-23T17:07:43.868Z,7.21
2023-01-23T17:10:51.120Z,7.22
2023-01-23T17:14:00.976Z,7.20
2023-01-23T17:17:09.932Z,7.19
2023-01-23T17:20:14.150Z,7.19
2023-01-23T17:23:17.586Z,7.22
2023-01-23T17:26:21.063Z,7.21
2023-01-23T17:29:24.941Z,7.25
2023-01-23T17:32:36.243Z,7.21
2023-01-23T17:35:39.135Z,7.14
2023-01-23T17:38:42.252Z,7.15
2023-01-23T17:41:44.945Z,7.15
2023-01-23T17:44:48.662Z,7.18
2023-01-23T17:47:54.922Z,7.14
2023-01-23T17:50:59.577Z,7.11
2023-01-23T17:54:02.274Z,7.18
2023-01-23T17:57:05.381Z,7.19
2023-01-23T18:00:11.617Z,7.10
2023-01-23T18:03:18.185Z,7.01
2023-01-23T18:06:21.219Z,6.91
2023-01-23T18:09:24.526Z,6.84
2023-01-23T18:13:05.889Z,6.87
2023-01-23T18:16:24.628Z,6.90
2023-01-23T18:19:27.901Z,6.89
2023-01-23T18:22:31.668Z,6.86
2023-01-23T18:25:36.013Z,6.83
2023-01-23T18:28:59.739Z,6.81
2023-01-23T18:32:28.345Z,6.79
2023-01-23T18:35:52.442Z,6.88
2023-01-23T18:39:07.417Z,6.90
2023-01-23T18:42:20.323Z,6.92
2023-01-23T18:45:27.303Z,6.86
2023-01-23T18:48:31.355Z,6.86
2023-01-23T18:51:47.205Z,6.81
2023-01-23T18:54:59.177Z,6.77
2023-01-23T18:58:08.933Z,6.78
2023-01-23T19:01:31.353Z,6.72
2023-01-23T19:04:42.997Z,6.70
2023-01-23T19:07:46.879Z,6.64
2023-01-23T19:10:53.964Z,6.55
2023-01-23T19:14:35.379Z,6.49
2023-01-23T19:17:43.848Z,6.39
2023-01-23T19:21:00.444Z,6.30
2023-01-23T19:24:09.966Z,6.21
2023-01-23T19:27:21.474Z,6.12
2023-01-23T19:30:26.933Z,6.03
2023-01-23T19:33:29.940Z,5.96
2023-01-23T19:36:35.366Z,5.93
2023-01-23T19:39:38.714Z,5.82
2023-01-23T19:42:58.750Z,5.77
2023-01-23T19:46:08.421Z,5.69
2023-01-23T19:49:12.028Z,5.61
2023-01-23T19:52:18.319Z,5.52
2023-01-23T19:55:28.331Z,5.49
2023-01-23T19:58:34.108Z,5.44
2023-01-23T20:01:48.344Z,5.46
2023-01-23T20:04:51.598Z,5.48
2023-01-23T20:07:54.542Z,5.56
2023-01-23T20:10:57.876Z,5.55
2023-01-23T20:14:02.440Z,5.52
2023-01-23T20:17:05.689Z,5.48
2023-01-23T20:20:11.373Z,5.47
2023-01-23T20:23:17.480Z,5.46
2023-01-23T20:26:21.547Z,5.46
2023-01-23T20:29:24.925Z,5.43
2023-01-23T20:32:27.774Z,5.35
2023-01-23T20:35:31.417Z,5.33
2023-01-23T20:38:34.506Z,5.29
2023-01-23T20:41:37.632Z,5.32
2023-01-23T20:44:42.017Z,5.31
2023-01-23T20:47:45.147Z,5.17
2023-01-23T20:50:56.398Z,5.11
2023-01-23T20:54:00.173Z,5.06
2023-01-23T20:57:03.142Z,5.00
2023-01-23T21:00:07.961Z,4.97
2023-01-23T21:03:11.092Z,4.99
2023-01-23T21:06:15.433Z,5.07
2023-01-23T21:09:19.104Z,5.21
2023-01-23T21:12:22.349Z,5.33
2023-01-23T21:15:25.027Z,5.28
2023-01-23T21:18:29.068Z,5.23
2023-01-23T21:21:32.352Z,5.10
2023-01-23T21:24:36.501Z,5.02
2023-01-23T21:27:39.381Z,4.94
2023-01-23T21:30:43.313Z,4.90
2023-01-23T21:33:46.613Z,4.89
2023-01-23T21:36:49.825Z,4.85
2023-01-23T21:39:52.627Z,4.80
2023-01-23T21:42:55.627Z,4.80
2023-01-23T21:45:58.454Z,4.76
2023-01-23T21:49:01.755Z,4.80
2023-01-23T21:52:04.665Z,4.79
2023-01-23T21:55:08.085Z,4.79
2023-01-23T21:58:10.716Z,4.80
2023-01-23T22:01:32.251Z,4.82
2023-01-23T22:04:35.646Z,4.76
2023-01-23T22:07:38.216Z,4.81
2023-01-23T22:10:41.139Z,4.79
2023-01-23T22:13:43.731Z,4.81
2023-01-23T22:16:49.647Z,4.73
2023-01-23T22:19:53.106Z,4.71
2023-01-23T22:22:55.935Z,4.62
2023-01-23T22:26:04.139Z,4.53
2023-01-23T22:29:07.182Z,4.43
2023-01-23T22:32:10.343Z,4.40
2023-01-23T22:35:13.395Z,4.40
2023-01-23T22:38:16.691Z,4.41
2023-01-23T22:41:20.128Z,4.45
2023-01-23T22:44:23.137Z,4.49
2023-01-23T22:47:26.027Z,4.50
2023-01-23T22:50:29.546Z,4.45
2023-01-23T22:53:32.795Z,4.42
2023-01-23T22:56:35.337Z,4.30
2023-01-23T22:59:38.613Z,4.32
2023-01-23T23:02:41.730Z,4.29
2023-01-23T23:05:44.951Z,4.21
2023-01-23T23:08:48.622Z,4.14
2023-01-23T23:11:52.736Z,4.14
2023-01-23T23:14:55.310Z,4.05
2023-01-23T23:17:58.131Z,4.05
2023-01-23T23:21:06.667Z,4.00
2023-01-23T23:24:13.128Z,4.01
2023-01-23T23:27:15.811Z,3.98
2023-01-23T23:30:18.864Z,3.98
2023-01-23T23:33:21.753Z,3.93
2023-01-23T23:36:24.899Z,3.95
2023-01-23T23:39:27.915Z,3.95
2023-01-23T23:42:31.054Z,3.93
2023-01-23T23:45:33.731Z,3.89
2023-01-23T23:48:38.572Z,3.85
2023-01-23T23:51:41.172Z,3.83
2023-01-23T23:54:44.381Z,3.80
2023-01-23T23:57:46.894Z,3.76
